createdAt,value
2022-12-08T00:02:09.000Z,5.30
2022-12-08T00:04:58.247Z,5.45
2022-12-08T00:07:45.601Z,5.35
2022-12-08T00:10:46.470Z,5.22
2022-12-08T00:13:03.278Z,5.45
2022-12-08T00:15:31.712Z,5.38
2022-12-08T00:18:00.235Z,4.90
2022-12-08T00:20:28.766Z,5.70
2022-12-08T00:22:58.599Z,5.97
2022-12-08T00:25:27.107Z,5.68
2022-12-08T00:27:55.540Z,5.55
2022-12-08T00:30:24.115Z,5.93
2022-12-08T00:32:52.659Z,5.80
2022-12-08T00:35:21.179Z,5.57
2022-12-08T00:37:49.682Z,5.57
2022-12-08T00:40:19.787Z,5.38
2022-12-08T00:42:48.306Z,5.57
2022-12-08T00:45:17.646Z,6.18
2022-12-08T00:47:46.180Z,6.00
2022-12-08T00:50:14.750Z,6.03
2022-12-08T00:52:43.210Z,5.57
2022-12-08T00:55:11.878Z,5.05
2022-12-08T00:57:41.708Z,5.45
2022-12-08T01:00:11.049Z,5.25
2022-12-08T01:02:39.503Z,5.75
2022-12-08T01:05:08.969Z,5.03
2022-12-08T01:07:37.728Z,4.68
2022-12-08T01:10:07.884Z,4.70
2022-12-08T01:12:36.763Z,4.78
2022-12-08T01:15:07.717Z,4.63
2022-12-08T01:17:37.906Z,4.78
2022-12-08T01:20:07.963Z,5.13
2022-12-08T01:22:36.558Z,4.32
2022-12-08T01:25:05.572Z,5.22
2022-12-08T01:27:34.107Z,5.28
2022-12-08T01:30:03.661Z,4.63
2022-12-08T01:32:33.796Z,5.32
2022-12-08T01:35:02.679Z,4.38
2022-12-08T01:37:31.263Z,5.15
2022-12-08T01:39:59.814Z,5.40
2022-12-08T01:42:28.278Z,5.53
2022-12-08T01:44:59.939Z,5.45
2022-12-08T01:47:36.659Z,4.85
2022-12-08T01:50:09.819Z,5.93
2022-12-08T01:52:41.836Z,5.22
2022-12-08T01:55:18.429Z,4.90
2022-12-08T02:00:20.758Z,5.00
2022-12-08T02:02:58.983Z,4.78
2022-12-08T02:05:30.014Z,5.05
2022-12-08T02:07:59.744Z,4.88
2022-12-08T02:10:31.470Z,5.20
2022-12-08T02:13:02.035Z,5.05
2022-12-08T02:15:37.007Z,4.53
2022-12-08T02:18:19.653Z,4.65
2022-12-08T02:20:57.213Z,4.75
2022-12-08T02:23:36.162Z,5.45
2022-12-08T02:26:40.642Z,5.10
2022-12-08T02:29:39.969Z,5.30
2022-12-08T02:32:28.723Z,4.50
2022-12-08T02:35:04.956Z,4.03
2022-12-08T02:37:38.216Z,5.28
2022-12-08T02:40:15.452Z,5.80
2022-12-08T02:42:48.095Z,5.53
2022-12-08T02:45:23.484Z,5.30
2022-12-08T02:47:52.967Z,4.70
2022-12-08T02:50:22.898Z,4.72
2022-12-08T02:52:53.978Z,4.40
2022-12-08T02:55:27.515Z,4.38
2022-12-08T02:58:27.589Z,5.20
2022-12-08T03:01:13.927Z,6.00
2022-12-08T03:03:52.976Z,4.65
2022-12-08T03:06:30.265Z,4.93
2022-12-08T03:09:04.380Z,4.65
2022-12-08T03:11:37.453Z,4.35
2022-12-08T03:14:09.685Z,5.03
2022-12-08T03:16:41.370Z,5.15
2022-12-08T03:19:15.327Z,5.25
2022-12-08T03:21:48.924Z,4.65
2022-12-08T03:24:19.946Z,4.95
2022-12-08T03:26:54.298Z,4.55
2022-12-08T03:29:23.031Z,5.47
2022-12-08T03:31:55.487Z,4.88
2022-12-08T03:34:26.975Z,5.30
2022-12-08T03:36:57.152Z,4.53
2022-12-08T03:39:25.664Z,4.28
2022-12-08T03:41:54.251Z,4.57
2022-12-08T03:44:22.750Z,4.65
2022-12-08T03:46:51.215Z,5.03
2022-12-08T03:49:19.683Z,4.82
2022-12-08T03:51:48.105Z,5.10
2022-12-08T03:54:18.012Z,4.72
2022-12-08T03:56:46.501Z,5.28
2022-12-08T03:59:15.078Z,4.80
2022-12-08T04:01:43.684Z,4.60
2022-12-08T04:04:12.516Z,4.38
2022-12-08T04:06:41.026Z,4.85
2022-12-08T04:09:10.314Z,5.38
2022-12-08T04:11:40.187Z,5.10
2022-12-08T04:14:08.816Z,4.60
2022-12-08T04:16:37.483Z,4.70
2022-12-08T04:19:05.989Z,4.80
2022-12-08T04:21:35.525Z,5.38
2022-12-08T04:24:04.115Z,4.57
2022-12-08T04:26:32.651Z,4.40
2022-12-08T04:29:02.482Z,4.47
2022-12-08T04:31:31.069Z,4.72
2022-12-08T04:33:59.603Z,4.25
2022-12-08T04:36:30.900Z,5.40
2022-12-08T04:38:59.453Z,4.32
2022-12-08T04:41:27.949Z,4.88
2022-12-08T04:43:56.423Z,5.00
2022-12-08T04:46:26.319Z,4.20
2022-12-08T04:48:54.811Z,4.85
2022-12-08T04:51:23.372Z,4.80
2022-12-08T04:53:51.887Z,4.57
2022-12-08T04:56:21.351Z,4.85
2022-12-08T04:58:49.838Z,5.20
2022-12-08T05:01:18.472Z,4.82
2022-12-08T05:03:48.323Z,5.15
2022-12-08T05:06:16.842Z,4.40
2022-12-08T05:08:45.427Z,5.57
2022-12-08T05:11:14.635Z,5.20
2022-12-08T05:13:43.151Z,5.15
2022-12-08T05:16:14.393Z,5.20
2022-12-08T05:18:43.843Z,4.63
2022-12-08T05:21:13.604Z,4.78
2022-12-08T05:23:42.206Z,5.28
2022-12-08T05:26:10.685Z,4.63
2022-12-08T05:28:42.234Z,5.45
2022-12-08T05:31:11.862Z,4.80
2022-12-08T05:33:40.780Z,4.40
2022-12-08T05:36:09.874Z,5.00
2022-12-08T05:38:42.220Z,4.38
2022-12-08T05:41:14.388Z,4.22
2022-12-08T05:43:43.027Z,4.85
2022-12-08T05:46:12.002Z,4.57
2022-12-08T05:48:40.728Z,4.97
2022-12-08T05:51:18.032Z,5.45
2022-12-08T05:53:48.091Z,5.38
2022-12-08T05:56:16.681Z,5.22
2022-12-08T05:58:45.295Z,4.68
2022-12-08T06:01:20.383Z,4.10
2022-12-08T06:03:49.083Z,5.65
2022-12-08T06:06:18.654Z,4.35
2022-12-08T06:08:48.534Z,5.25
2022-12-08T06:11:20.762Z,4.28
2022-12-08T06:13:49.691Z,3.90
2022-12-08T06:16:18.950Z,5.13
2022-12-08T06:18:47.582Z,5.28
2022-12-08T06:21:17.518Z,5.32
2022-12-08T06:23:50.994Z,4.55
2022-12-08T06:26:20.449Z,5.93
2022-12-08T06:28:49.996Z,5.18
2022-12-08T06:31:21.312Z,4.78
2022-12-08T06:33:50.554Z,4.20
2022-12-08T06:36:22.017Z,4.80
2022-12-08T06:38:52.187Z,4.75
2022-12-08T06:41:20.762Z,4.68
2022-12-08T06:43:49.205Z,4.97
2022-12-08T06:46:19.525Z,4.07
2022-12-08T06:48:48.898Z,4.68
2022-12-08T06:51:20.364Z,4.47
2022-12-08T06:53:48.875Z,4.43
2022-12-08T06:56:20.036Z,4.97
2022-12-08T06:58:52.536Z,4.70
2022-12-08T07:01:21.746Z,4.30
2022-12-08T07:03:50.345Z,5.13
2022-12-08T07:06:23.147Z,4.28
2022-12-08T07:08:51.929Z,4.43
2022-12-08T07:11:22.740Z,4.13
2022-12-08T07:13:51.629Z,4.10
2022-12-08T07:16:20.328Z,4.30
2022-12-08T07:18:48.875Z,4.53
2022-12-08T07:21:18.899Z,4.18
2022-12-08T07:23:54.444Z,4.38
2022-12-08T07:26:27.767Z,4.20
2022-12-08T07:28:56.560Z,4.30
2022-12-08T07:31:26.808Z,5.35
2022-12-08T07:33:55.617Z,5.32
2022-12-08T07:36:25.007Z,4.65
2022-12-08T07:38:54.165Z,4.05
2022-12-08T07:41:24.346Z,5.00
2022-12-08T07:43:54.525Z,5.95
2022-12-08T07:46:25.293Z,5.35
2022-12-08T07:48:55.253Z,4.90
2022-12-08T07:51:24.808Z,4.47
2022-12-08T07:53:55.007Z,5.45
2022-12-08T07:58:54.053Z,4.47
2022-12-08T08:01:25.304Z,5.30
2022-12-08T08:03:54.864Z,5.78
2022-12-08T08:06:23.921Z,5.75
2022-12-08T08:08:52.348Z,6.72
2022-12-08T08:11:21.812Z,6.43
2022-12-08T08:13:50.695Z,5.00
2022-12-08T08:16:21.741Z,6.82
2022-12-08T08:18:51.356Z,6.43
2022-12-08T08:21:44.519Z,7.15
2022-12-08T08:24:10.218Z,7.57
2022-12-08T08:26:39.084Z,6.35
2022-12-08T08:29:07.630Z,5.35
2022-12-08T08:31:37.569Z,6.22
2022-12-08T08:34:06.452Z,5.32
2022-12-08T08:36:35.301Z,6.25
2022-12-08T08:39:04.620Z,6.53
2022-12-08T08:41:33.255Z,7.18
2022-12-08T08:44:01.770Z,6.43
2022-12-08T08:46:30.445Z,7.30
2022-12-08T08:49:00.469Z,7.05
2022-12-08T08:51:28.957Z,6.93
2022-12-08T08:53:57.948Z,7.18
2022-12-08T08:56:26.886Z,8.40
2022-12-08T08:58:55.691Z,7.43
2022-12-08T09:01:26.094Z,7.95
2022-12-08T09:08:53.620Z,6.22
2022-12-08T09:11:23.286Z,6.80
2022-12-08T09:13:52.791Z,7.38
2022-12-08T09:16:22.542Z,6.85
2022-12-08T09:18:51.825Z,5.80
2022-12-08T09:21:23.356Z,5.65
2022-12-08T09:23:55.523Z,5.43
2022-12-08T09:26:25.091Z,6.38
2022-12-08T09:28:55.828Z,6.40
2022-12-08T09:31:25.420Z,6.53
2022-12-08T09:33:54.080Z,5.72
2022-12-08T09:36:22.985Z,4.95
2022-12-08T09:38:53.795Z,6.43
2022-12-08T09:41:35.985Z,6.38
2022-12-08T09:44:31.993Z,4.35
2022-12-08T09:47:04.641Z,4.80
2022-12-08T09:49:39.585Z,5.30
2022-12-08T09:52:21.148Z,6.93
2022-12-08T09:54:51.269Z,6.00
2022-12-08T09:57:23.591Z,6.90
2022-12-08T09:59:56.838Z,5.00
2022-12-08T10:02:27.261Z,5.47
2022-12-08T10:04:57.224Z,5.72
2022-12-08T10:07:35.461Z,4.90
2022-12-08T10:10:15.333Z,4.75
2022-12-08T10:12:50.851Z,4.75
2022-12-08T10:15:32.462Z,5.28
2022-12-08T10:18:04.038Z,4.47
2022-12-08T10:20:38.052Z,4.70
2022-12-08T10:23:11.468Z,4.90
2022-12-08T10:25:45.742Z,4.65
2022-12-08T10:28:15.082Z,4.45
2022-12-08T10:30:43.839Z,8.10
2022-12-08T10:33:16.753Z,5.30
2022-12-08T10:35:47.527Z,7.25
2022-12-08T10:38:23.187Z,17.77
2022-12-08T10:40:58.155Z,4.75
2022-12-08T10:43:28.504Z,5.05
2022-12-08T10:46:09.439Z,4.18
2022-12-08T10:48:38.332Z,7.05
2022-12-08T10:51:23.744Z,4.50
2022-12-08T10:53:52.205Z,5.10
2022-12-08T10:56:26.619Z,4.85
2022-12-08T10:59:08.133Z,4.45
2022-12-08T11:01:40.322Z,4.70
2022-12-08T11:04:16.540Z,5.22
2022-12-08T11:06:46.055Z,4.88
2022-12-08T11:09:38.242Z,4.40
2022-12-08T11:12:15.241Z,4.78
2022-12-08T11:14:50.272Z,4.60
2022-12-08T11:17:26.162Z,4.45
2022-12-08T11:20:01.925Z,4.80
2022-12-08T11:22:33.148Z,5.28
2022-12-08T11:25:10.261Z,5.07
2022-12-08T11:27:43.360Z,5.43
2022-12-08T11:30:16.759Z,5.47
2022-12-08T11:32:47.761Z,4.80
2022-12-08T11:35:24.003Z,5.18
2022-12-08T11:38:13.429Z,4.75
2022-12-08T11:40:47.125Z,4.82
2022-12-08T11:43:23.091Z,4.10
2022-12-08T11:45:58.763Z,5.00
2022-12-08T11:48:34.626Z,4.10
2022-12-08T11:51:10.499Z,4.40
2022-12-08T11:53:48.378Z,5.35
2022-12-08T11:56:23.234Z,5.32
2022-12-08T11:58:57.739Z,5.32
2022-12-08T12:01:27.743Z,4.90
2022-12-08T12:04:10.564Z,4.50
2022-12-08T12:08:30.496Z,6.68
2022-12-08T12:11:11.732Z,3.50
2022-12-08T12:13:58.647Z,4.15
2022-12-08T12:16:51.105Z,3.67
2022-12-08T12:19:22.861Z,3.70
2022-12-08T12:21:54.899Z,4.47
2022-12-08T12:24:32.841Z,4.35
2022-12-08T12:27:09.264Z,3.75
2022-12-08T12:29:39.500Z,3.88
2022-12-08T12:32:09.682Z,3.83
2022-12-08T12:37:15.606Z,3.40
2022-12-08T12:39:56.156Z,3.10
2022-12-08T12:42:39.573Z,3.50
2022-12-08T12:45:25.293Z,3.97
2022-12-08T12:48:15.442Z,3.58
2022-12-08T12:50:45.741Z,3.45
2022-12-08T12:53:53.936Z,3.65
2022-12-08T12:56:49.842Z,3.33
2022-12-08T12:59:54.928Z,3.45
2022-12-08T13:02:27.103Z,3.72
2022-12-08T13:05:03.284Z,3.47
2022-12-08T13:07:35.402Z,3.55
2022-12-08T13:10:17.600Z,3.40
2022-12-08T13:13:04.495Z,4.22
2022-12-08T13:15:36.539Z,3.70
2022-12-08T13:18:06.680Z,4.50
2022-12-08T13:20:43.461Z,4.13
2022-12-08T13:23:32.107Z,4.35
2022-12-08T13:26:16.508Z,3.90
2022-12-08T13:29:23.266Z,3.90
2022-12-08T13:31:54.118Z,3.63
2022-12-08T13:34:31.055Z,4.32
2022-12-08T13:37:20.070Z,3.60
2022-12-08T13:39:53.075Z,3.28
2022-12-08T13:42:30.166Z,3.65
2022-12-08T13:45:36.245Z,4.25
2022-12-08T13:48:22.126Z,13.93
2022-12-08T13:57:05.124Z,3.95
2022-12-08T13:59:32.663Z,4.13
2022-12-08T14:02:06.583Z,4.20
2022-12-08T14:04:54.461Z,4.50
2022-12-08T14:07:24.924Z,5.07
2022-12-08T14:09:54.124Z,4.13
2022-12-08T14:12:25.819Z,3.45
2022-12-08T14:15:04.047Z,3.70
2022-12-08T14:17:34.954Z,3.65
2022-12-08T14:20:06.561Z,3.20
2022-12-08T14:22:36.829Z,3.28
2022-12-08T14:27:37.763Z,2.95
2022-12-08T14:30:08.815Z,3.63
2022-12-08T14:32:45.280Z,3.58
2022-12-08T14:37:49.881Z,2.83
2022-12-08T14:40:23.653Z,2.40
2022-12-08T14:42:55.277Z,3.13
2022-12-08T14:45:23.992Z,2.83
2022-12-08T14:47:53.819Z,3.25
2022-12-08T14:50:40.385Z,3.03
2022-12-08T14:53:15.455Z,3.35
2022-12-08T14:55:46.384Z,3.30
2022-12-08T14:58:27.752Z,3.03
2022-12-08T15:00:58.907Z,2.78
2022-12-08T15:03:32.110Z,3.00
2022-12-08T15:06:05.096Z,2.72
2022-12-08T15:08:35.101Z,2.22
2022-12-08T15:11:28.434Z,2.78
2022-12-08T15:13:57.024Z,2.40
2022-12-08T15:16:28.310Z,2.20
2022-12-08T15:19:16.612Z,2.45
2022-12-08T15:21:46.956Z,2.22
2022-12-08T15:24:16.751Z,2.55
2022-12-08T15:26:47.590Z,2.72
2022-12-08T15:29:22.209Z,2.88
2022-12-08T15:31:52.327Z,2.08
2022-12-08T15:34:22.527Z,2.47
2022-12-08T15:36:52.929Z,2.67
2022-12-08T15:39:39.579Z,2.53
2022-12-08T15:42:13.271Z,2.42
2022-12-08T15:44:42.313Z,3.33
2022-12-08T15:47:16.675Z,3.00
2022-12-08T15:49:46.926Z,2.80
2022-12-08T15:52:17.982Z,3.05
2022-12-08T15:54:46.757Z,2.50
2022-12-08T15:57:35.857Z,2.83
2022-12-08T16:00:51.244Z,3.28
2022-12-08T16:09:12.721Z,3.40
2022-12-08T16:12:08.899Z,3.10
2022-12-08T16:17:28.882Z,2.72
2022-12-08T16:19:58.753Z,4.53
2022-12-08T16:25:22.137Z,3.47
2022-12-08T16:28:36.796Z,2.80
2022-12-08T16:30:42.293Z,2.40
2022-12-08T16:33:12.374Z,2.97
2022-12-08T16:35:41.784Z,2.97
2022-12-08T16:38:15.503Z,3.15
2022-12-08T16:40:59.690Z,2.92
2022-12-08T16:43:28.108Z,2.92
2022-12-08T16:45:56.595Z,3.13
2022-12-08T16:48:25.240Z,2.85
2022-12-08T16:50:53.959Z,3.03
2022-12-08T16:53:24.446Z,3.47
2022-12-08T16:55:52.978Z,7.90
2022-12-08T16:58:21.586Z,4.82
2022-12-08T17:00:50.122Z,3.80
2022-12-08T17:03:18.922Z,3.45
2022-12-08T17:05:47.454Z,3.60
2022-12-08T17:08:16.095Z,2.70
2022-12-08T17:11:06.095Z,2.63
2022-12-08T17:13:35.024Z,2.40
2022-12-08T17:16:03.794Z,2.88
2022-12-08T17:18:32.238Z,3.75
2022-12-08T17:21:00.887Z,3.33
2022-12-08T17:23:29.469Z,3.17
2022-12-08T17:26:01.013Z,3.15
2022-12-08T17:28:51.923Z,3.72
2022-12-08T17:31:18.594Z,3.70
2022-12-08T17:33:47.121Z,4.15
2022-12-08T17:36:17.807Z,5.15
2022-12-08T17:38:46.422Z,4.80
2022-12-08T17:41:16.408Z,6.60
2022-12-08T17:43:44.949Z,5.65
2022-12-08T17:46:18.215Z,5.75
2022-12-08T17:48:46.875Z,6.18
2022-12-08T17:51:15.721Z,5.75
2022-12-08T17:53:44.707Z,4.68
2022-12-08T17:56:18.038Z,3.90
2022-12-08T17:58:49.868Z,3.83
2022-12-08T18:01:22.929Z,4.35
2022-12-08T18:03:52.352Z,4.55
2022-12-08T18:06:21.134Z,4.70
2022-12-08T18:08:49.615Z,4.82
2022-12-08T18:11:21.015Z,5.88
2022-12-08T18:13:51.035Z,6.50
2022-12-08T18:16:21.676Z,6.45
2022-12-08T18:18:50.294Z,6.15
2022-12-08T18:21:23.233Z,5.00
2022-12-08T18:23:52.336Z,4.90
2022-12-08T18:26:22.981Z,4.72
2022-12-08T18:28:51.448Z,4.88
2022-12-08T18:31:22.454Z,5.30
2022-12-08T18:33:52.039Z,5.13
2022-12-08T18:36:23.098Z,5.32
2022-12-08T18:38:52.923Z,6.10
2022-12-08T18:41:25.723Z,5.53
2022-12-08T18:43:55.248Z,6.47
2022-12-08T18:46:25.316Z,5.90
2022-12-08T18:48:54.106Z,5.57
2022-12-08T18:51:24.843Z,5.63
2022-12-08T18:53:53.978Z,5.53
2022-12-08T18:56:26.408Z,6.38
2022-12-08T18:59:01.336Z,5.80
2022-12-08T19:01:32.618Z,5.72
2022-12-08T19:04:27.218Z,4.90
2022-12-08T19:06:50.524Z,5.05
2022-12-08T19:09:19.637Z,5.20
2022-12-08T19:11:49.637Z,4.38
2022-12-08T19:14:22.605Z,5.20
2022-12-08T19:16:54.550Z,4.88
2022-12-08T19:19:23.059Z,6.55
2022-12-08T19:21:51.778Z,6.00
2022-12-08T19:24:20.864Z,6.55
2022-12-08T19:26:50.791Z,5.93
2022-12-08T19:29:19.245Z,7.35
2022-12-08T19:31:47.993Z,7.07
2022-12-08T19:34:16.687Z,6.60
2022-12-08T19:36:45.683Z,7.25
2022-12-08T19:39:36.257Z,5.80
2022-12-08T19:42:24.742Z,3.78
2022-12-08T19:44:56.060Z,3.75
2022-12-08T19:47:26.977Z,3.42
2022-12-08T19:50:16.229Z,3.40
2022-12-08T19:52:45.278Z,4.00
2022-12-08T19:55:14.036Z,5.13
2022-12-08T19:57:46.423Z,11.43
2022-12-08T20:00:15.396Z,7.18
2022-12-08T20:02:43.997Z,7.35
2022-12-08T20:05:13.318Z,5.75
2022-12-08T20:07:42.375Z,9.20
2022-12-08T20:10:17.986Z,7.43
2022-12-08T20:12:47.798Z,4.90
2022-12-08T20:15:16.496Z,6.13
2022-12-08T20:17:44.938Z,6.10
2022-12-08T20:20:14.896Z,6.38
2022-12-08T20:25:13.797Z,4.57
2022-12-08T20:27:42.611Z,5.07
2022-12-08T20:30:17.030Z,4.35
2022-12-08T20:32:46.398Z,4.45
2022-12-08T20:35:16.340Z,6.20
2022-12-08T20:37:45.308Z,6.60
2022-12-08T20:40:14.073Z,5.07
2022-12-08T20:42:42.947Z,5.22
2022-12-08T20:45:12.787Z,4.47
2022-12-08T20:47:41.549Z,4.75
2022-12-08T20:50:11.048Z,5.25
2022-12-08T20:52:40.282Z,4.57
2022-12-08T20:55:09.925Z,4.72
2022-12-08T20:57:38.743Z,4.50
2022-12-08T21:00:09.172Z,4.28
2022-12-08T21:02:45.284Z,4.25
2022-12-08T21:05:16.493Z,4.60
2022-12-08T21:07:45.437Z,4.60
2022-12-08T21:10:14.425Z,4.88
2022-12-08T21:12:43.339Z,4.97
2022-12-08T21:15:13.251Z,4.78
2022-12-08T21:17:43.230Z,5.10
2022-12-08T21:20:12.144Z,4.70
2022-12-08T21:22:40.942Z,6.43
2022-12-08T21:25:10.519Z,5.70
2022-12-08T21:27:39.806Z,5.25
2022-12-08T21:30:10.595Z,5.25
2022-12-08T21:32:40.205Z,4.85
2022-12-08T21:35:11.226Z,5.18
2022-12-08T21:37:39.969Z,4.75
2022-12-08T21:40:10.857Z,3.75
2022-12-08T21:42:46.224Z,3.63
2022-12-08T21:45:17.203Z,2.90
2022-12-08T21:47:46.409Z,2.95
2022-12-08T21:50:17.173Z,2.63
2022-12-08T21:52:47.690Z,2.08
2022-12-08T21:55:19.114Z,2.65
2022-12-08T21:57:47.948Z,2.03
2022-12-08T22:00:18.154Z,1.80
2022-12-08T22:02:47.189Z,2.30
2022-12-08T22:05:17.390Z,2.40
2022-12-08T22:07:45.942Z,2.47
2022-12-08T22:10:14.743Z,2.92
2022-12-08T22:12:43.552Z,2.97
2022-12-08T22:15:12.774Z,3.35
2022-12-08T22:17:42.914Z,3.50
2022-12-08T22:20:14.251Z,3.45
2022-12-08T22:22:45.555Z,3.10
2022-12-08T22:25:14.534Z,2.85
2022-12-08T22:27:43.150Z,3.10
2022-12-08T22:30:12.618Z,3.30
2022-12-08T22:32:41.910Z,3.33
2022-12-08T22:35:11.173Z,3.67
2022-12-08T22:37:39.831Z,3.40
2022-12-08T22:40:12.091Z,3.17
2022-12-08T22:42:40.651Z,3.80
2022-12-08T22:45:10.092Z,3.00
2022-12-08T22:47:38.564Z,3.58
2022-12-08T22:50:08.338Z,3.38
2022-12-08T22:52:37.381Z,2.80
2022-12-08T22:55:06.965Z,3.15
2022-12-08T22:57:36.889Z,3.53
2022-12-08T23:00:07.606Z,3.60
2022-12-08T23:02:38.400Z,3.55
2022-12-08T23:05:07.803Z,5.10
2022-12-08T23:07:36.551Z,5.00
2022-12-08T23:10:07.039Z,4.72
2022-12-08T23:12:37.865Z,3.60
2022-12-08T23:15:07.807Z,3.55
2022-12-08T23:17:36.583Z,3.33
2022-12-08T23:20:06.497Z,3.03
2022-12-08T23:22:35.331Z,3.40
2022-12-08T23:25:03.983Z,3.20
2022-12-08T23:27:32.696Z,3.20
2022-12-08T23:30:02.720Z,3.15
2022-12-08T23:32:31.340Z,2.63
2022-12-08T23:34:59.913Z,2.88
2022-12-08T23:37:28.783Z,3.05
2022-12-08T23:39:57.380Z,3.15
2022-12-08T23:42:25.862Z,2.80
2022-12-08T23:44:54.277Z,3.53
2022-12-08T23:47:24.280Z,2.22
2022-12-08T23:49:52.968Z,2.58
2022-12-08T23:52:21.527Z,2.70
2022-12-08T23:54:51.174Z,2.50
2022-12-08T23:57:19.686Z,3.17
2022-12-08T23:59:48.232Z,3.00
